createdAt,value
2023-05-08T00:01:16.274Z,13.42
2023-05-08T00:03:45.133Z,13.45
2023-05-08T00:06:13.352Z,13.50
2023-05-08T00:08:42.023Z,13.52
2023-05-08T00:11:10.394Z,13.53
2023-05-08T00:13:41.361Z,13.52
2023-05-08T00:16:11.708Z,13.54
2023-05-08T00:18:40.347Z,13.55
2023-05-08T00:21:11.032Z,13.56
2023-05-08T00:23:39.292Z,13.57
2023-05-08T00:26:07.757Z,13.57
2023-05-08T00:28:35.905Z,13.60
2023-05-08T00:31:06.543Z,13.58
2023-05-08T00:33:35.223Z,13.64
2023-05-08T00:36:05.246Z,13.66
2023-05-08T00:38:34.263Z,13.67
2023-05-08T00:41:02.459Z,13.68
2023-05-08T00:43:35.991Z,13.69
2023-05-08T00:46:05.638Z,13.71
2023-05-08T00:48:37.032Z,13.69
2023-05-08T00:51:07.526Z,13.74
2023-05-08T00:53:43.034Z,13.75
2023-05-08T00:56:12.621Z,13.76
2023-05-08T00:58:42.299Z,13.78
2023-05-08T01:01:12.228Z,13.75
2023-05-08T01:03:44.797Z,13.70
2023-05-08T01:06:13.604Z,13.68
2023-05-08T01:08:42.758Z,13.67
2023-05-08T01:11:19.175Z,13.69
2023-05-08T01:13:53.322Z,13.69
2023-05-08T01:16:30.663Z,13.70
2023-05-08T01:19:05.175Z,13.62
2023-05-08T01:21:42.050Z,13.67
2023-05-08T01:24:41.301Z,13.65
2023-05-08T01:27:40.678Z,13.63
2023-05-08T01:30:35.846Z,13.59
2023-05-08T01:33:12.094Z,13.62
2023-05-08T01:35:46.876Z,13.56
2023-05-08T01:38:23.836Z,13.63
2023-05-08T01:41:04.305Z,13.61
2023-05-08T01:43:40.738Z,13.64
2023-05-08T01:46:15.776Z,13.64
2023-05-08T01:48:51.189Z,13.62
2023-05-08T01:51:22.821Z,13.63
2023-05-08T01:53:54.323Z,13.61
2023-05-08T01:56:25.630Z,13.63
2023-05-08T01:58:56.134Z,13.63
2023-05-08T02:01:26.299Z,13.66
2023-05-08T02:04:00.016Z,13.65
2023-05-08T02:06:31.238Z,13.64
2023-05-08T02:09:01.882Z,13.60
2023-05-08T02:11:33.241Z,13.60
2023-05-08T02:14:03.050Z,13.58
2023-05-08T02:16:32.800Z,13.58
2023-05-08T02:19:04.423Z,13.57
2023-05-08T02:21:33.370Z,13.56
2023-05-08T02:24:02.365Z,13.56
2023-05-08T02:26:32.700Z,13.55
2023-05-08T02:29:03.471Z,13.54
2023-05-08T02:31:49.364Z,13.52
2023-05-08T02:34:19.970Z,13.49
2023-05-08T02:36:50.310Z,13.46
2023-05-08T02:39:20.650Z,13.36
2023-05-08T02:41:49.607Z,13.32
2023-05-08T02:44:18.289Z,13.29
2023-05-08T02:46:50.564Z,13.27
2023-05-08T02:49:27.238Z,13.26
2023-05-08T02:52:01.393Z,13.25
2023-05-08T02:54:39.418Z,13.24
2023-05-08T02:57:19.893Z,13.26
2023-05-08T02:59:55.669Z,13.25
2023-05-08T03:02:33.690Z,13.22
2023-05-08T03:05:06.990Z,13.22
2023-05-08T03:07:42.326Z,13.22
2023-05-08T03:13:13.382Z,13.13
2023-05-08T03:15:44.319Z,13.12
2023-05-08T03:18:17.419Z,13.10
2023-05-08T03:20:49.481Z,13.06
2023-05-08T03:23:22.744Z,13.02
2023-05-08T03:25:51.467Z,13.03
2023-05-08T03:28:23.518Z,13.00
2023-05-08T03:30:54.081Z,12.96
2023-05-08T03:33:24.653Z,12.95
2023-05-08T03:35:55.625Z,12.92
2023-05-08T03:38:24.470Z,12.89
2023-05-08T03:40:55.493Z,12.83
2023-05-08T03:43:25.981Z,12.86
2023-05-08T03:45:55.325Z,12.87
2023-05-08T03:48:24.410Z,12.83
2023-05-08T03:50:53.417Z,12.79
2023-05-08T03:53:21.767Z,12.79
2023-05-08T03:55:50.179Z,12.78
2023-05-08T03:58:27.741Z,12.75
2023-05-08T04:01:06.973Z,12.72
2023-05-08T04:03:55.178Z,12.77
2023-05-08T04:06:42.048Z,12.78
2023-05-08T04:09:21.202Z,12.78
2023-05-08T04:11:58.086Z,12.75
2023-05-08T04:14:31.214Z,12.74
2023-05-08T04:17:03.743Z,12.75
2023-05-08T04:19:37.342Z,12.71
2023-05-08T04:22:09.570Z,12.71
2023-05-08T04:24:44.459Z,12.67
2023-05-08T04:27:14.101Z,12.65
2023-05-08T04:29:44.326Z,12.66
2023-05-08T04:32:13.368Z,12.62
2023-05-08T04:34:42.104Z,12.61
2023-05-08T04:37:10.487Z,12.58
2023-05-08T04:39:43.614Z,12.56
2023-05-08T04:42:12.103Z,12.54
2023-05-08T04:44:40.590Z,12.55
2023-05-08T04:47:10.062Z,12.51
2023-05-08T04:49:38.304Z,12.47
2023-05-08T04:52:06.797Z,12.44
2023-05-08T04:54:35.322Z,12.44
2023-05-08T04:57:03.916Z,12.46
2023-05-08T04:59:33.046Z,12.45
2023-05-08T05:02:03.622Z,12.45
2023-05-08T05:04:33.781Z,12.41
2023-05-08T05:07:02.366Z,12.42
2023-05-08T05:09:30.670Z,12.42
2023-05-08T05:11:58.822Z,12.47
2023-05-08T05:14:27.249Z,12.48
2023-05-08T05:16:55.736Z,12.48
2023-05-08T05:19:27.152Z,12.48
2023-05-08T05:21:56.975Z,12.50
2023-05-08T05:24:25.105Z,12.38
2023-05-08T05:26:53.255Z,12.54
2023-05-08T05:29:21.807Z,12.54
2023-05-08T05:31:49.948Z,12.51
2023-05-08T05:34:18.092Z,12.57
2023-05-08T05:36:46.660Z,12.56
2023-05-08T05:39:16.309Z,12.59
2023-05-08T05:41:44.831Z,12.56
2023-05-08T05:44:13.788Z,12.59
2023-05-08T05:46:44.540Z,12.60
2023-05-08T05:49:13.546Z,12.60
2023-05-08T05:51:42.212Z,12.53
2023-05-08T05:54:10.458Z,12.57
2023-05-08T05:56:40.452Z,12.58
2023-05-08T05:59:08.796Z,12.59
2023-05-08T06:01:36.890Z,12.55
2023-05-08T06:04:07.663Z,12.58
2023-05-08T06:06:35.795Z,12.62
2023-05-08T06:09:04.513Z,12.66
2023-05-08T06:11:32.809Z,12.69
2023-05-08T06:14:02.403Z,12.74
2023-05-08T06:16:31.071Z,12.84
2023-05-08T06:18:59.443Z,12.92
2023-05-08T06:21:28.580Z,13.04
2023-05-08T06:23:59.157Z,13.04
2023-05-08T06:26:27.395Z,13.03
2023-05-08T06:28:55.577Z,13.12
2023-05-08T06:31:25.228Z,12.98
2023-05-08T06:33:55.631Z,13.02
2023-05-08T06:36:23.921Z,13.03
2023-05-08T06:38:52.140Z,13.02
2023-05-08T06:41:37.623Z,12.97
2023-05-08T06:44:06.013Z,13.06
2023-05-08T06:46:35.607Z,13.10
2023-05-08T06:49:03.728Z,13.08
2023-05-08T06:51:31.973Z,13.13
2023-05-08T06:54:00.172Z,13.32
2023-05-08T06:56:28.493Z,13.28
2023-05-08T06:59:07.845Z,13.33
2023-05-08T07:01:38.741Z,13.30
2023-05-08T07:04:07.223Z,13.35
2023-05-08T07:06:35.341Z,13.57
2023-05-08T07:09:03.533Z,13.63
2023-05-08T07:11:31.973Z,13.60
2023-05-08T07:14:03.311Z,13.54
2023-05-08T07:16:31.655Z,13.61
2023-05-08T07:19:01.155Z,13.65
2023-05-08T07:21:31.741Z,13.72
2023-05-08T07:23:59.917Z,13.59
2023-05-08T07:26:28.319Z,13.64
2023-05-08T07:28:57.079Z,13.63
2023-05-08T07:31:25.441Z,13.56
2023-05-08T07:33:53.600Z,13.68
2023-05-08T07:36:23.336Z,13.82
2023-05-08T07:38:51.514Z,13.83
2023-05-08T07:41:19.621Z,13.92
2023-05-08T07:43:47.778Z,13.99
2023-05-08T07:46:19.861Z,13.90
2023-05-08T07:48:47.951Z,13.90
2023-05-08T07:51:16.576Z,14.16
2023-05-08T07:53:48.886Z,14.20
2023-05-08T07:56:17.863Z,14.45
2023-05-08T07:58:48.100Z,14.68
2023-05-08T08:01:18.120Z,14.73
2023-05-08T08:03:47.834Z,14.77
2023-05-08T08:06:16.004Z,14.80
2023-05-08T08:08:44.392Z,14.76
2023-05-08T08:13:10.197Z,14.68
2023-05-08T08:15:38.600Z,14.66
2023-05-08T08:18:07.680Z,14.68
2023-05-08T08:20:35.926Z,14.81
2023-05-08T08:23:04.381Z,14.66
2023-05-08T08:25:33.025Z,14.69
2023-05-08T08:28:03.564Z,14.81
2023-05-08T08:30:33.309Z,14.92
2023-05-08T08:33:02.415Z,14.91
2023-05-08T08:35:34.264Z,14.99
2023-05-08T08:38:02.776Z,15.05
2023-05-08T08:40:31.040Z,15.25
2023-05-08T08:43:01.915Z,15.35
2023-05-08T08:45:30.277Z,15.29
2023-05-08T08:48:03.509Z,15.47
2023-05-08T08:50:34.808Z,15.62
2023-05-08T08:53:11.523Z,15.65
2023-05-08T08:55:44.980Z,15.66
2023-05-08T08:58:25.937Z,15.74
2023-05-08T09:00:56.206Z,15.84
2023-05-08T09:03:26.051Z,15.77
2023-05-08T09:05:55.698Z,15.73
2023-05-08T09:08:23.938Z,15.59
2023-05-08T09:10:53.485Z,15.60
2023-05-08T09:13:24.200Z,15.65
2023-05-08T09:15:55.152Z,15.78
2023-05-08T09:18:23.337Z,15.68
2023-05-08T09:20:53.282Z,15.71
2023-05-08T09:23:22.388Z,15.78
2023-05-08T09:25:51.416Z,15.91
2023-05-08T09:28:20.635Z,16.10
2023-05-08T09:30:52.933Z,16.11
2023-05-08T09:33:22.240Z,16.10
2023-05-08T09:35:54.707Z,16.25
2023-05-08T09:38:37.460Z,16.24
2023-05-08T09:41:10.424Z,16.12
2023-05-08T09:43:39.553Z,16.13
2023-05-08T09:46:24.549Z,16.18
2023-05-08T09:48:54.369Z,16.16
2023-05-08T09:51:24.384Z,16.23
2023-05-08T09:53:56.158Z,16.30
2023-05-08T09:56:32.110Z,16.64
2023-05-08T09:59:06.709Z,16.45
2023-05-08T10:01:36.553Z,16.40
2023-05-08T10:04:06.016Z,16.55
2023-05-08T10:06:36.619Z,16.24
2023-05-08T10:09:09.211Z,16.05
2023-05-08T10:11:37.749Z,15.91
2023-05-08T10:14:06.150Z,15.74
2023-05-08T10:16:42.594Z,15.80
2023-05-08T10:19:17.005Z,16.03
2023-05-08T10:21:50.184Z,16.28
2023-05-08T10:24:18.750Z,15.98
2023-05-08T10:27:06.408Z,15.85
2023-05-08T10:29:43.762Z,15.89
2023-05-08T10:32:12.291Z,16.25
2023-05-08T10:34:42.595Z,16.54
2023-05-08T10:37:14.445Z,16.83
2023-05-08T10:39:45.533Z,16.85
2023-05-08T10:42:15.136Z,16.93
2023-05-08T10:44:43.400Z,16.92
2023-05-08T10:47:18.634Z,16.91
2023-05-08T10:49:54.217Z,17.19
2023-05-08T10:52:31.188Z,17.60
2023-05-08T10:55:17.602Z,17.76
2023-05-08T10:58:04.022Z,18.01
2023-05-08T11:00:34.421Z,17.88
2023-05-08T11:03:16.937Z,18.19
2023-05-08T11:05:53.438Z,18.29
2023-05-08T11:08:24.866Z,18.03
2023-05-08T11:11:06.354Z,18.26
2023-05-08T11:13:36.076Z,18.41
2023-05-08T11:16:06.532Z,18.29
2023-05-08T11:18:49.225Z,18.28
2023-05-08T11:21:22.377Z,18.08
2023-05-08T11:23:58.906Z,18.25
2023-05-08T11:26:40.753Z,18.40
2023-05-08T11:29:18.298Z,18.29
2023-05-08T11:31:52.652Z,18.19
2023-05-08T11:34:46.471Z,17.87
2023-05-08T11:37:19.967Z,17.94
2023-05-08T11:39:49.879Z,17.77
2023-05-08T11:42:37.196Z,17.75
2023-05-08T11:45:07.825Z,17.99
2023-05-08T11:47:41.571Z,18.17
2023-05-08T11:50:14.113Z,18.48
2023-05-08T11:52:44.827Z,18.68
2023-05-08T11:55:15.912Z,18.94
2023-05-08T11:57:44.092Z,19.04
2023-05-08T12:00:13.839Z,19.59
2023-05-08T12:02:43.884Z,19.34
2023-05-08T12:05:14.560Z,19.44
2023-05-08T12:07:47.500Z,19.66
2023-05-08T12:10:17.924Z,19.59
2023-05-08T12:12:47.132Z,19.43
2023-05-08T12:15:16.396Z,19.62
2023-05-08T12:17:44.946Z,19.80
2023-05-08T12:20:15.378Z,19.34
2023-05-08T12:22:50.690Z,18.84
2023-05-08T12:25:27.590Z,18.85
2023-05-08T12:27:55.968Z,18.76
2023-05-08T12:30:24.448Z,18.82
2023-05-08T12:32:54.005Z,18.81
2023-05-08T12:35:25.364Z,18.54
2023-05-08T12:37:53.826Z,18.39
2023-05-08T12:40:28.697Z,18.35
2023-05-08T12:42:57.103Z,17.96
2023-05-08T12:45:28.306Z,18.10
2023-05-08T12:48:01.180Z,18.16
2023-05-08T12:50:36.172Z,17.99
2023-05-08T12:53:05.749Z,17.99
2023-05-08T12:55:37.389Z,18.09
2023-05-08T12:58:09.213Z,17.96
2023-05-08T13:00:44.005Z,18.07
2023-05-08T13:03:13.848Z,18.20
2023-05-08T13:05:44.258Z,18.37
2023-05-08T13:08:15.047Z,18.39
2023-05-08T13:14:10.510Z,18.52
2023-05-08T13:16:45.545Z,18.15
2023-05-08T13:19:14.761Z,18.26
2023-05-08T13:21:44.643Z,18.38
2023-05-08T13:24:15.385Z,18.94
2023-05-08T13:26:44.167Z,18.93
2023-05-08T13:29:16.210Z,19.48
2023-05-08T13:31:46.789Z,19.82
2023-05-08T13:34:15.157Z,19.46
2023-05-08T13:36:43.477Z,19.82
2023-05-08T13:39:11.801Z,19.70
2023-05-08T13:41:40.392Z,19.57
2023-05-08T13:44:08.601Z,19.11
2023-05-08T13:46:38.132Z,19.08
2023-05-08T13:49:06.331Z,18.87
2023-05-08T13:51:34.690Z,18.51
2023-05-08T13:54:03.036Z,18.55
2023-05-08T13:56:31.110Z,18.69
2023-05-08T13:58:59.300Z,18.33
2023-05-08T14:01:27.774Z,18.47
2023-05-08T14:03:57.470Z,18.24
2023-05-08T14:06:28.015Z,18.57
2023-05-08T14:08:57.104Z,18.54
2023-05-08T14:11:25.672Z,18.05
2023-05-08T14:13:54.074Z,18.05
2023-05-08T14:16:24.910Z,17.87
2023-05-08T14:18:56.049Z,18.15
2023-05-08T14:21:25.956Z,17.98
2023-05-08T14:23:54.593Z,18.23
2023-05-08T14:26:22.922Z,18.39
2023-05-08T14:28:51.205Z,18.50
2023-05-08T14:31:21.838Z,18.35
2023-05-08T14:33:50.050Z,18.58
2023-05-08T14:36:18.293Z,18.93
2023-05-08T14:38:50.144Z,19.13
2023-05-08T14:41:18.246Z,19.48
2023-05-08T14:43:47.192Z,19.58
2023-05-08T14:46:15.818Z,19.61
2023-05-08T14:48:48.839Z,19.90
2023-05-08T14:51:16.993Z,19.70
2023-05-08T14:53:49.105Z,19.70
2023-05-08T14:56:17.961Z,19.80
2023-05-08T14:58:46.331Z,19.89
2023-05-08T15:01:14.557Z,19.78
2023-05-08T15:03:42.670Z,19.92
2023-05-08T15:06:11.027Z,19.85
2023-05-08T15:08:39.029Z,19.89
2023-05-08T15:11:08.537Z,20.55
2023-05-08T15:13:36.764Z,20.15
2023-05-08T15:16:05.125Z,19.66
2023-05-08T15:18:33.289Z,19.74
2023-05-08T15:21:03.839Z,19.42
2023-05-08T15:23:32.031Z,19.19
2023-05-08T15:26:00.481Z,19.21
2023-05-08T15:28:30.002Z,19.30
2023-05-08T15:30:58.089Z,19.35
2023-05-08T15:33:26.424Z,19.24
2023-05-08T15:35:58.802Z,19.23
2023-05-08T15:38:29.635Z,19.27
2023-05-08T15:40:57.749Z,19.17
2023-05-08T15:43:29.601Z,19.00
2023-05-08T15:45:57.840Z,19.04
2023-05-08T15:48:25.926Z,19.03
2023-05-08T15:50:54.030Z,19.29
2023-05-08T15:53:24.496Z,19.42
2023-05-08T15:55:52.712Z,19.31
2023-05-08T15:58:21.304Z,19.37
2023-05-08T16:00:50.943Z,19.55
2023-05-08T16:03:21.782Z,19.67
2023-05-08T16:05:50.293Z,19.38
2023-05-08T16:08:18.429Z,19.00
2023-05-08T16:10:46.795Z,18.67
2023-05-08T16:13:16.329Z,18.69
2023-05-08T16:15:44.560Z,18.72
2023-05-08T16:18:14.356Z,18.73
2023-05-08T16:20:43.198Z,18.56
2023-05-08T16:23:12.433Z,18.52
2023-05-08T16:25:45.180Z,18.48
2023-05-08T16:28:13.812Z,18.40
2023-05-08T16:30:42.187Z,18.13
2023-05-08T16:33:12.186Z,18.14
2023-05-08T16:35:42.377Z,18.10
2023-05-08T16:38:12.927Z,18.06
2023-05-08T16:40:41.803Z,18.05
2023-05-08T16:43:10.167Z,18.18
2023-05-08T16:45:38.223Z,18.15
2023-05-08T16:48:25.373Z,17.87
2023-05-08T16:50:55.780Z,17.67
2023-05-08T16:53:24.213Z,17.60
2023-05-08T16:55:55.910Z,17.61
2023-05-08T16:58:27.143Z,17.59
2023-05-08T17:00:58.110Z,17.55
2023-05-08T17:03:27.041Z,17.52
2023-05-08T17:05:56.676Z,17.53
2023-05-08T17:08:24.864Z,17.59
2023-05-08T17:10:55.435Z,17.67
2023-05-08T17:13:23.769Z,17.62
2023-05-08T17:15:54.623Z,17.59
2023-05-08T17:18:22.899Z,17.51
2023-05-08T17:20:51.693Z,17.43
2023-05-08T17:23:23.525Z,17.37
2023-05-08T17:25:58.061Z,17.26
2023-05-08T17:28:27.577Z,17.18
2023-05-08T17:30:57.051Z,17.22
2023-05-08T17:33:30.617Z,17.25
2023-05-08T17:36:00.142Z,17.15
2023-05-08T17:38:31.734Z,17.00
2023-05-08T17:41:00.838Z,17.04
2023-05-08T17:43:31.121Z,16.96
2023-05-08T17:46:00.102Z,16.84
2023-05-08T17:48:29.236Z,16.84
2023-05-08T17:50:59.368Z,16.82
2023-05-08T17:53:27.932Z,16.82
2023-05-08T17:55:57.491Z,16.77
2023-05-08T17:58:27.441Z,16.74
2023-05-08T18:00:56.067Z,16.72
2023-05-08T18:03:26.510Z,16.68
2023-05-08T18:05:54.918Z,16.72
2023-05-08T18:08:25.613Z,16.67
2023-05-08T18:10:53.778Z,16.68
2023-05-08T18:15:13.120Z,16.57
2023-05-08T18:17:41.477Z,16.51
2023-05-08T18:20:10.476Z,16.47
2023-05-08T18:22:38.630Z,16.46
2023-05-08T18:25:07.591Z,16.44
2023-05-08T18:27:36.583Z,16.41
2023-05-08T18:30:05.698Z,16.39
2023-05-08T18:32:35.286Z,16.35
2023-05-08T18:35:03.470Z,16.28
2023-05-08T18:37:31.640Z,16.23
2023-05-08T18:40:02.113Z,16.18
2023-05-08T18:42:30.479Z,16.13
2023-05-08T18:45:00.405Z,16.09
2023-05-08T18:47:29.003Z,16.09
2023-05-08T18:50:01.576Z,16.06
2023-05-08T18:52:29.904Z,16.07
2023-05-08T18:54:58.117Z,16.03
2023-05-08T18:57:26.312Z,15.98
2023-05-08T18:59:55.245Z,15.99
2023-05-08T19:02:24.670Z,15.95
2023-05-08T19:04:53.089Z,15.98
2023-05-08T19:07:22.792Z,15.97
2023-05-08T19:09:51.675Z,15.97
2023-05-08T19:12:20.488Z,15.99
2023-05-08T19:14:49.150Z,15.99
2023-05-08T19:17:17.388Z,16.00
2023-05-08T19:19:45.803Z,15.99
2023-05-08T19:22:16.693Z,16.00
2023-05-08T19:24:46.565Z,15.97
2023-05-08T19:27:14.750Z,15.99
2023-05-08T19:29:45.839Z,15.97
2023-05-08T19:32:14.158Z,15.97
2023-05-08T19:34:45.443Z,15.96
2023-05-08T19:37:14.168Z,15.91
2023-05-08T19:39:42.311Z,15.92
2023-05-08T19:42:13.934Z,15.88
2023-05-08T19:44:42.214Z,15.88
2023-05-08T19:47:10.869Z,15.84
2023-05-08T19:49:39.196Z,15.83
2023-05-08T19:52:07.503Z,15.83
2023-05-08T19:54:35.838Z,15.83
2023-05-08T19:57:04.150Z,15.67
2023-05-08T19:59:34.011Z,15.77
2023-05-08T20:02:02.387Z,15.73
2023-05-08T20:04:31.336Z,15.71
2023-05-08T20:07:00.643Z,15.69
2023-05-08T20:09:28.870Z,15.67
2023-05-08T20:11:57.600Z,15.60
2023-05-08T20:14:25.940Z,15.60
2023-05-08T20:16:55.382Z,15.55
2023-05-08T20:19:24.797Z,15.53
2023-05-08T20:21:53.035Z,15.50
2023-05-08T20:24:21.269Z,15.48
2023-05-08T20:26:49.608Z,15.48
2023-05-08T20:29:17.926Z,15.44
2023-05-08T20:31:46.229Z,15.42
2023-05-08T20:34:21.677Z,15.42
2023-05-08T20:36:50.122Z,15.40
2023-05-08T20:39:18.526Z,15.36
2023-05-08T20:41:47.250Z,15.33
2023-05-08T20:44:19.241Z,15.34
2023-05-08T20:46:47.368Z,15.32
2023-05-08T20:49:20.046Z,15.29
2023-05-08T20:51:50.995Z,15.28
2023-05-08T20:54:19.355Z,15.24
2023-05-08T20:56:47.546Z,15.23
2023-05-08T20:59:18.914Z,15.21
2023-05-08T21:01:48.692Z,15.21
2023-05-08T21:04:22.902Z,15.21
2023-05-08T21:06:52.404Z,15.19
2023-05-08T21:09:22.731Z,15.15
2023-05-08T21:11:50.906Z,15.13
2023-05-08T21:14:22.089Z,15.08
2023-05-08T21:16:50.495Z,15.06
2023-05-08T21:19:18.615Z,15.03
2023-05-08T21:21:49.113Z,15.03
2023-05-08T21:24:17.230Z,15.01
2023-05-08T21:26:47.565Z,14.99
2023-05-08T21:29:16.105Z,14.96
2023-05-08T21:31:46.906Z,14.94
2023-05-08T21:34:16.587Z,14.92
2023-05-08T21:36:48.550Z,14.92
2023-05-08T21:39:17.098Z,14.90
2023-05-08T21:41:45.826Z,14.91
2023-05-08T21:44:15.564Z,14.91
2023-05-08T21:46:43.784Z,14.87
2023-05-08T21:49:12.065Z,14.86
2023-05-08T21:51:40.230Z,14.67
2023-05-08T21:54:10.134Z,14.75
2023-05-08T21:56:38.407Z,14.73
2023-05-08T21:59:06.759Z,14.67
2023-05-08T22:01:39.978Z,14.63
2023-05-08T22:04:08.371Z,14.60
2023-05-08T22:06:36.521Z,14.60
2023-05-08T22:09:04.737Z,14.59
2023-05-08T22:11:34.451Z,14.57
2023-05-08T22:14:02.635Z,14.51
2023-05-08T22:16:30.847Z,14.41
2023-05-08T22:18:59.027Z,14.38
2023-05-08T22:21:29.539Z,14.30
2023-05-08T22:24:00.155Z,14.24
2023-05-08T22:26:30.611Z,14.19
2023-05-08T22:29:00.438Z,14.21
2023-05-08T22:31:28.689Z,14.16
2023-05-08T22:33:58.489Z,14.07
2023-05-08T22:36:26.993Z,13.97
2023-05-08T22:38:57.766Z,13.87
2023-05-08T22:41:26.905Z,13.79
2023-05-08T22:43:55.171Z,13.71
2023-05-08T22:46:25.461Z,13.66
2023-05-08T22:48:56.059Z,13.62
2023-05-08T22:51:24.269Z,13.58
2023-05-08T22:53:53.070Z,13.57
2023-05-08T22:56:21.395Z,13.59
2023-05-08T22:58:49.519Z,13.52
2023-05-08T23:01:17.864Z,13.58
2023-05-08T23:03:47.515Z,13.54
2023-05-08T23:06:15.809Z,13.53
2023-05-08T23:08:44.010Z,13.52
2023-05-08T23:11:12.457Z,13.53
2023-05-08T23:16:13.983Z,13.53
2023-05-08T23:18:42.059Z,13.53
2023-05-08T23:21:10.634Z,13.53
2023-05-08T23:23:38.780Z,13.52
2023-05-08T23:26:07.052Z,13.46
2023-05-08T23:28:36.435Z,13.47
2023-05-08T23:31:07.192Z,13.44
2023-05-08T23:33:39.715Z,13.35
2023-05-08T23:36:08.626Z,13.27
2023-05-08T23:38:36.688Z,13.17
2023-05-08T23:41:05.400Z,13.08
2023-05-08T23:43:33.621Z,13.01
2023-05-08T23:46:05.028Z,12.97
2023-05-08T23:48:33.688Z,12.91
2023-05-08T23:51:03.110Z,12.88
2023-05-08T23:53:31.941Z,12.88
2023-05-08T23:56:00.127Z,12.89
2023-05-08T23:58:28.949Z,12.89
